Time;durP1;ratioP1;P1;durP2;ratioP2;P2;SDS_P1;SDS_P2;PMS_P1;PMS_P2;Temp;Humidity;BMP_temperature;BMP_pressure;BME280_temperature;BME280_humidity;BME280_pressure;Samples;Min_cycle;Max_cycle;Signal;HPM_P1;HPM_P2
2023/08/13 00:02:08;;;;;;;11.68;9.00;;;;;;;;;;6313896;28;20084;-76
2023/08/13 00:05:09;;;;;;;11.32;8.25;;;;;;;;;;6313322;28;20303;-76
2023/08/13 00:08:11;;;;;;;12.50;9.10;;;;;;;;;;6310573;28;20347;-77
2023/08/13 00:11:12;;;;;;;10.45;7.43;;;;;;;;;;6313251;28;20040;-75
2023/08/13 00:14:15;;;;;;;10.70;7.53;;;;;;;;;;6312335;28;20124;-74
2023/08/13 00:17:16;;;;;;;9.15;8.07;;;;;;;;;;6316181;28;20291;-74
2023/08/13 00:20:18;;;;;;;12.45;9.10;;;;;;;;;;6313828;28;20334;-75
2023/08/13 00:23:19;;;;;;;9.95;7.88;;;;;;;;;;6315214;28;20055;-75
2023/08/13 00:26:20;;;;;;;8.35;7.18;;;;;;;;;;6312625;28;20048;-76
2023/08/13 00:29:23;;;;;;;9.15;7.38;;;;;;;;;;6314646;28;20048;-76
2023/08/13 00:32:25;;;;;;;8.00;7.22;;;;;;;;;;6313925;28;20407;-76
2023/08/13 00:35:26;;;;;;;11.07;7.50;;;;;;;;;;6315635;28;20241;-76
2023/08/13 00:38:27;;;;;;;9.05;7.45;;;;;;;;;;6312606;28;20124;-78
2023/08/13 00:41:29;;;;;;;8.93;6.35;;;;;;;;;;6310564;28;20394;-77
2023/08/13 00:44:32;;;;;;;9.73;6.70;;;;;;;;;;6312127;28;20255;-78
2023/08/13 00:47:34;;;;;;;9.20;6.82;;;;;;;;;;6313183;28;20055;-78
2023/08/13 00:50:35;;;;;;;9.93;6.17;;;;;;;;;;6318361;28;20279;-77
2023/08/13 00:53:42;;;;;;;7.97;6.50;;;;;;;;;;6312315;28;20060;-77
2023/08/13 00:56:45;;;;;;;10.82;7.22;;;;;;;;;;6314584;28;20064;-77
2023/08/13 00:59:48;;;;;;;13.15;7.25;;;;;;;;;;6309960;28;20095;-77
2023/08/13 01:02:50;;;;;;;7.15;6.45;;;;;;;;;;6314626;28;20052;-77
2023/08/13 01:05:54;;;;;;;7.95;6.57;;;;;;;;;;6311403;28;20254;-77
2023/08/13 01:09:01;;;;;;;9.73;6.93;;;;;;;;;;6309731;28;21129;-77
2023/08/13 01:12:05;;;;;;;6.70;5.68;;;;;;;;;;6313393;28;20056;-77
2023/08/13 01:15:14;;;;;;;7.78;6.07;;;;;;;;;;6313964;28;20052;-76
2023/08/13 01:18:16;;;;;;;9.85;5.88;;;;;;;;;;6314592;28;20076;-74
2023/08/13 01:21:17;;;;;;;9.80;7.30;;;;;;;;;;6314311;28;20052;-77
2023/08/13 01:24:20;;;;;;;10.10;6.00;;;;;;;;;;6314747;28;20463;-76
2023/08/13 01:27:26;;;;;;;7.63;5.78;;;;;;;;;;6310106;28;20150;-76
2023/08/13 01:30:33;;;;;;;8.38;5.50;;;;;;;;;;6311332;28;20250;-77
2023/08/13 01:33:36;;;;;;;11.20;5.22;;;;;;;;;;6312825;28;20341;-78
2023/08/13 01:36:37;;;;;;;7.53;4.82;;;;;;;;;;6312915;28;20053;-78
2023/08/13 01:39:40;;;;;;;7.40;5.25;;;;;;;;;;6311646;28;20219;-79
2023/08/13 01:42:42;;;;;;;7.07;5.47;;;;;;;;;;6314739;28;20048;-79
2023/08/13 01:45:43;;;;;;;5.95;5.22;;;;;;;;;;6312186;28;20052;-79
2023/08/13 01:48:44;;;;;;;8.35;4.80;;;;;;;;;;6312881;28;20154;-78
2023/08/13 01:51:46;;;;;;;8.13;5.78;;;;;;;;;;6318325;28;20521;-78
2023/08/13 01:54:49;;;;;;;8.93;5.10;;;;;;;;;;6311874;28;20051;-78
2023/08/13 01:57:51;;;;;;;11.15;5.20;;;;;;;;;;6311351;28;20225;-78
2023/08/13 02:00:53;;;;;;;7.65;4.55;;;;;;;;;;6316881;28;20044;-78
2023/08/13 02:03:55;;;;;;;7.47;5.20;;;;;;;;;;6318003;28;20232;-78
2023/08/13 02:06:56;;;;;;;8.35;5.45;;;;;;;;;;6319425;28;20087;-78
2023/08/13 02:09:59;;;;;;;6.07;4.45;;;;;;;;;;6317176;28;20056;-79
2023/08/13 02:13:00;;;;;;;5.65;4.95;;;;;;;;;;6319204;28;20045;-78
2023/08/13 02:16:02;;;;;;;5.00;4.07;;;;;;;;;;6321709;28;20340;-78
2023/08/13 02:19:03;;;;;;;6.30;4.68;;;;;;;;;;6318383;28;20044;-78
2023/08/13 02:22:05;;;;;;;7.50;4.65;;;;;;;;;;6317998;28;20090;-79
2023/08/13 02:25:08;;;;;;;6.15;4.82;;;;;;;;;;6320110;28;20052;-79
2023/08/13 02:28:09;;;;;;;;;;;;;;;;;;6323068;28;20043;-78
2023/08/13 02:31:11;;;;;;;4.57;3.83;;;;;;;;;;6321307;28;19923;-78
2023/08/13 02:34:12;;;;;;;8.30;4.38;;;;;;;;;;6315682;28;20105;-77
2023/08/13 02:37:14;;;;;;;6.93;4.43;;;;;;;;;;6312544;28;20060;-77
2023/08/13 02:40:17;;;;;;;7.57;5.57;;;;;;;;;;6318168;28;20044;-77
2023/08/13 02:43:19;;;;;;;4.60;4.20;;;;;;;;;;6316892;28;20307;-77
2023/08/13 02:46:20;;;;;;;6.80;4.78;;;;;;;;;;6318594;28;20051;-77
2023/08/13 02:49:22;;;;;;;6.45;4.50;;;;;;;;;;6315793;28;20059;-77
2023/08/13 02:52:23;;;;;;;6.63;4.78;;;;;;;;;;6316150;28;20055;-77
2023/08/13 02:55:26;;;;;;;6.15;4.60;;;;;;;;;;6317433;28;20052;-77
2023/08/13 02:58:27;;;;;;;5.43;4.35;;;;;;;;;;6318959;28;20051;-77
2023/08/13 03:01:29;;;;;;;6.47;3.92;;;;;;;;;;6316784;28;20056;-77
2023/08/13 03:04:30;;;;;;;5.18;4.40;;;;;;;;;;6318289;28;20051;-77
2023/08/13 03:07:32;;;;;;;4.70;3.97;;;;;;;;;;6316047;28;20048;-77
2023/08/13 03:10:35;;;;;;;5.88;3.78;;;;;;;;;;6314368;28;20145;-77
2023/08/13 03:13:36;;;;;;;4.53;4.07;;;;;;;;;;6314643;28;20063;-77
2023/08/13 03:16:38;;;;;;;8.52;4.20;;;;;;;;;;6315845;28;20051;-77
2023/08/13 03:19:39;;;;;;;4.25;3.75;;;;;;;;;;6315687;28;20052;-77
2023/08/13 03:22:40;;;;;;;7.75;4.30;;;;;;;;;;6318673;28;20044;-77
2023/08/13 03:25:43;;;;;;;5.03;4.30;;;;;;;;;;6317087;28;20056;-76
2023/08/13 03:28:45;;;;;;;5.97;4.38;;;;;;;;;;6315062;28;20060;-77
2023/08/13 03:31:46;;;;;;;4.72;4.20;;;;;;;;;;6317961;28;20368;-77
2023/08/13 03:34:47;;;;;;;5.50;4.50;;;;;;;;;;6314826;28;20056;-77
2023/08/13 03:37:49;;;;;;;4.88;4.28;;;;;;;;;;6315333;28;20052;-77
2023/08/13 03:40:55;;;;;;;6.03;3.80;;;;;;;;;;6318477;28;20713;-77
2023/08/13 03:43:56;;;;;;;6.55;4.28;;;;;;;;;;6315048;28;20052;-77
2023/08/13 03:46:58;;;;;;;6.53;3.92;;;;;;;;;;6316642;28;20060;-77
2023/08/13 03:49:59;;;;;;;5.82;4.00;;;;;;;;;;6316115;28;20074;-77
2023/08/13 03:53:01;;;;;;;5.50;4.18;;;;;;;;;;6318634;28;20108;-76
2023/08/13 03:56:07;;;;;;;4.72;4.25;;;;;;;;;;6315926;28;20054;-77
2023/08/13 03:59:08;;;;;;;4.85;3.55;;;;;;;;;;6315267;28;20101;-77
2023/08/13 04:02:09;;;;;;;4.47;3.40;;;;;;;;;;6313778;28;20147;-77
2023/08/13 04:05:11;;;;;;;6.97;3.90;;;;;;;;;;6315028;28;20044;-77
2023/08/13 04:08:13;;;;;;;4.35;3.92;;;;;;;;;;6313032;28;20056;-77
2023/08/13 04:11:15;;;;;;;4.03;3.22;;;;;;;;;;6315375;28;20045;-77
2023/08/13 04:14:17;;;;;;;5.07;3.40;;;;;;;;;;6315172;28;20085;-76
2023/08/13 04:17:18;;;;;;;4.47;3.40;;;;;;;;;;6313317;28;20044;-77
2023/08/13 04:20:21;;;;;;;4.97;3.60;;;;;;;;;;6313042;28;20369;-77
2023/08/13 04:23:22;;;;;;;4.10;3.70;;;;;;;;;;6311815;28;20344;-77
2023/08/13 04:26:25;;;;;;;5.05;3.33;;;;;;;;;;6314220;28;20048;-77
2023/08/13 04:29:27;;;;;;;6.43;3.30;;;;;;;;;;6314778;28;20067;-77
2023/08/13 04:32:28;;;;;;;4.28;3.20;;;;;;;;;;6315323;28;20245;-77
2023/08/13 04:35:30;;;;;;;4.50;3.10;;;;;;;;;;6312400;28;20062;-77
2023/08/13 04:38:31;;;;;;;5.40;3.72;;;;;;;;;;6315559;28;20040;-77
2023/08/13 04:41:34;;;;;;;3.63;3.22;;;;;;;;;;6313792;28;20060;-77
2023/08/13 04:44:35;;;;;;;3.95;3.55;;;;;;;;;;6318924;28;20261;-77
2023/08/13 04:47:37;;;;;;;4.32;3.30;;;;;;;;;;6313740;28;20060;-77
2023/08/13 04:50:38;;;;;;;4.72;3.00;;;;;;;;;;6312828;28;20324;-77
2023/08/13 04:53:40;;;;;;;4.95;3.33;;;;;;;;;;6312528;28;20048;-77
2023/08/13 04:56:42;;;;;;;5.53;3.55;;;;;;;;;;6314712;28;20996;-77
2023/08/13 04:59:44;;;;;;;4.30;3.00;;;;;;;;;;6314832;28;20114;-77
2023/08/13 05:02:46;;;;;;;5.03;2.95;;;;;;;;;;6312009;28;20107;-77
2023/08/13 05:05:47;;;;;;;4.60;3.03;;;;;;;;;;6314213;28;20111;-76
2023/08/13 05:08:48;;;;;;;4.88;3.00;;;;;;;;;;6314453;28;20059;-77
2023/08/13 05:11:51;;;;;;;3.65;2.80;;;;;;;;;;6312391;28;20059;-77
2023/08/13 05:14:53;;;;;;;7.57;2.72;;;;;;;;;;6315397;28;20052;-77
2023/08/13 05:17:54;;;;;;;4.85;3.10;;;;;;;;;;6314054;28;20045;-77
2023/08/13 05:20:55;;;;;;;4.10;2.80;;;;;;;;;;6315969;28;20503;-77
2023/08/13 05:23:57;;;;;;;6.85;2.63;;;;;;;;;;6312481;28;20048;-76
2023/08/13 05:27:00;;;;;;;5.43;2.58;;;;;;;;;;6314488;28;20082;-77
2023/08/13 05:30:02;;;;;;;5.35;2.78;;;;;;;;;;6311783;28;20043;-77
2023/08/13 05:33:04;;;;;;;4.17;2.53;;;;;;;;;;6311687;28;20068;-77
2023/08/13 05:36:05;;;;;;;3.45;2.70;;;;;;;;;;6313780;28;20233;-77
2023/08/13 05:39:08;;;;;;;3.90;2.72;;;;;;;;;;6318145;28;20070;-77
2023/08/13 05:42:11;;;;;;;3.78;2.97;;;;;;;;;;6318313;28;20060;-77
2023/08/13 05:45:12;;;;;;;4.30;2.60;;;;;;;;;;6317540;28;20097;-77
2023/08/13 05:48:14;;;;;;;4.15;2.80;;;;;;;;;;6320114;28;20332;-77
2023/08/13 05:51:15;;;;;;;4.68;2.42;;;;;;;;;;6318661;28;20397;-75
2023/08/13 05:54:17;;;;;;;5.32;2.65;;;;;;;;;;6316495;28;20048;-76
2023/08/13 05:57:19;;;;;;;10.38;2.55;;;;;;;;;;6318415;28;20048;-78
2023/08/13 06:00:21;;;;;;;3.92;2.67;;;;;;;;;;6317865;28;20055;-77
2023/08/13 06:03:22;;;;;;;2.90;2.42;;;;;;;;;;6317904;28;20256;-77
2023/08/13 06:06:24;;;;;;;3.55;2.72;;;;;;;;;;6321226;28;20049;-77
2023/08/13 06:09:25;;;;;;;3.90;2.40;;;;;;;;;;6316251;28;20531;-77
2023/08/13 06:12:28;;;;;;;6.47;3.00;;;;;;;;;;6316941;28;20110;-77
2023/08/13 06:15:29;;;;;;;3.05;2.40;;;;;;;;;;6316374;28;20123;-76
2023/08/13 06:18:31;;;;;;;5.50;2.58;;;;;;;;;;6318479;28;20054;-76
2023/08/13 06:21:32;;;;;;;3.65;2.13;;;;;;;;;;6319862;28;20047;-76
2023/08/13 06:24:34;;;;;;;4.03;2.92;;;;;;;;;;6322227;28;20335;-75
2023/08/13 06:27:37;;;;;;;2.42;2.22;;;;;;;;;;6316460;28;20054;-77
2023/08/13 06:30:38;;;;;;;3.08;2.40;;;;;;;;;;6317653;28;20052;-76
2023/08/13 06:33:39;;;;;;;4.03;2.58;;;;;;;;;;6316780;28;20363;-77
2023/08/13 06:36:41;;;;;;;3.50;2.28;;;;;;;;;;6317892;28;20047;-77
2023/08/13 06:39:42;;;;;;;3.28;2.50;;;;;;;;;;6316265;28;20070;-77
2023/08/13 06:42:45;;;;;;;2.55;2.13;;;;;;;;;;6317928;28;20284;-77
2023/08/13 06:45:47;;;;;;;4.28;2.20;;;;;;;;;;6314281;28;20048;-76
2023/08/13 06:48:49;;;;;;;3.92;2.30;;;;;;;;;;6315210;28;20067;-75
2023/08/13 06:51:50;;;;;;;2.75;2.28;;;;;;;;;;6316908;28;20131;-75
2023/08/13 06:54:52;;;;;;;3.03;2.60;;;;;;;;;;6317274;28;20322;-76
2023/08/13 06:57:55;;;;;;;5.60;2.35;;;;;;;;;;6318509;28;20048;-75
2023/08/13 07:00:56;;;;;;;3.45;2.60;;;;;;;;;;6319535;28;20051;-75
2023/08/13 07:03:58;;;;;;;3.30;2.13;;;;;;;;;;6316094;28;20061;-77
2023/08/13 07:06:59;;;;;;;4.63;2.40;;;;;;;;;;6316853;28;20056;-76
2023/08/13 07:10:00;;;;;;;2.65;1.88;;;;;;;;;;6314139;28;20055;-76
2023/08/13 07:13:03;;;;;;;3.85;2.22;;;;;;;;;;6316585;28;20052;-76
2023/08/13 07:16:09;;;;;;;2.75;1.98;;;;;;;;;;6315820;28;20095;-76
2023/08/13 07:19:11;;;;;;;2.58;2.10;;;;;;;;;;6314673;28;20325;-76
2023/08/13 07:22:13;;;;;;;3.88;2.30;;;;;;;;;;6319449;28;20277;-77
2023/08/13 07:25:14;;;;;;;2.92;2.20;;;;;;;;;;6322261;28;20085;-77
2023/08/13 07:28:17;;;;;;;5.18;1.90;;;;;;;;;;6317709;28;20082;-76
2023/08/13 07:31:18;;;;;;;;;;;;;;;;;;6320750;28;20063;-77
2023/08/13 07:34:20;;;;;;;3.22;1.65;;;;;;;;;;6318403;28;19939;-76
2023/08/13 07:37:22;;;;;;;2.67;1.90;;;;;;;;;;6319419;28;20053;-77
2023/08/13 07:40:24;;;;;;;2.15;1.80;;;;;;;;;;6317550;28;20078;-75
2023/08/13 07:43:26;;;;;;;2.80;1.75;;;;;;;;;;6321389;28;20083;-75
2023/08/13 07:46:28;;;;;;;;;;;;;;;;;;6319888;28;20316;-75
2023/08/13 07:49:29;;;;;;;3.58;1.90;;;;;;;;;;6319325;28;20551;-75
2023/08/13 07:52:30;;;;;;;2.20;2.00;;;;;;;;;;6319760;28;20048;-75
2023/08/13 07:55:32;;;;;;;2.13;1.80;;;;;;;;;;6319056;28;20584;-77
2023/08/13 07:58:35;;;;;;;3.80;1.85;;;;;;;;;;6317743;28;20051;-76
2023/08/13 08:01:36;;;;;;;4.05;1.95;;;;;;;;;;6319810;28;20051;-77
2023/08/13 08:04:38;;;;;;;2.70;1.92;;;;;;;;;;6318583;28;20052;-77
2023/08/13 08:07:39;;;;;;;2.38;1.65;;;;;;;;;;6315820;28;20143;-77
2023/08/13 08:10:41;;;;;;;2.38;1.70;;;;;;;;;;6319263;28;20052;-77
2023/08/13 08:13:44;;;;;;;3.03;1.83;;;;;;;;;;6319996;28;20060;-75
2023/08/13 08:16:45;;;;;;;1.90;1.67;;;;;;;;;;6319222;28;20255;-78
2023/08/13 08:19:48;;;;;;;3.20;2.00;;;;;;;;;;6320076;28;20059;-79
2023/08/13 08:22:50;;;;;;;3.42;1.90;;;;;;;;;;6320685;28;20052;-77
2023/08/13 08:25:51;;;;;;;2.78;2.03;;;;;;;;;;6316546;28;20047;-77
2023/08/13 08:28:54;;;;;;;2.95;1.70;;;;;;;;;;6319381;28;20048;-77
2023/08/13 08:31:55;;;;;;;3.72;2.00;;;;;;;;;;6318901;28;20095;-77
2023/08/13 08:34:57;;;;;;;3.35;1.70;;;;;;;;;;6319317;28;20044;-77
2023/08/13 08:37:58;;;;;;;2.65;2.05;;;;;;;;;;6319156;28;20048;-78
2023/08/13 08:41:01;;;;;;;3.90;1.83;;;;;;;;;;6320013;28;20107;-75
2023/08/13 08:44:06;;;;;;;2.72;1.73;;;;;;;;;;6320676;28;20053;-77
2023/08/13 08:47:08;;;;;;;2.47;1.67;;;;;;;;;;6320951;28;20052;-77
2023/08/13 08:50:11;;;;;;;9.82;2.00;;;;;;;;;;6319449;28;20371;-77
2023/08/13 08:53:13;;;;;;;2.40;1.73;;;;;;;;;;6321820;28;20048;-78
2023/08/13 08:56:14;;;;;;;4.60;1.90;;;;;;;;;;6313885;28;20056;-77
2023/08/13 08:59:17;;;;;;;2.50;1.60;;;;;;;;;;6314500;28;20056;-77
2023/08/13 09:02:18;;;;;;;3.55;1.50;;;;;;;;;;6314830;28;20241;-77
2023/08/13 09:05:20;;;;;;;3.87;1.83;;;;;;;;;;6312517;28;20060;-77
2023/08/13 09:08:22;;;;;;;7.38;3.97;;;;;;;;;;6315987;28;20060;-76
2023/08/13 09:11:23;;;;;;;3.53;1.80;;;;;;;;;;6313967;28;20058;-77
2023/08/13 09:14:26;;;;;;;3.15;2.13;;;;;;;;;;6314981;28;20075;-77
2023/08/13 09:17:30;;;;;;;3.10;1.80;;;;;;;;;;6314005;28;20337;-76
2023/08/13 09:20:32;;;;;;;3.17;1.80;;;;;;;;;;6315585;28;20617;-76
2023/08/13 09:23:33;;;;;;;5.87;2.10;;;;;;;;;;6312315;28;20101;-77
2023/08/13 09:26:35;;;;;;;2.17;1.83;;;;;;;;;;6312532;28;20051;-77
2023/08/13 09:29:38;;;;;;;2.05;1.80;;;;;;;;;;6312723;28;20464;-77
2023/08/13 09:32:41;;;;;;;3.45;1.70;;;;;;;;;;6312903;28;20091;-77
2023/08/13 09:35:43;;;;;;;2.72;1.50;;;;;;;;;;6316205;28;20332;-76
2023/08/13 09:38:44;;;;;;;2.60;1.80;;;;;;;;;;6315914;28;20355;-76
2023/08/13 09:41:48;;;;;;;2.67;2.07;;;;;;;;;;6313952;28;20059;-77
2023/08/13 09:44:55;;;;;;;2.58;2.03;;;;;;;;;;6316304;28;20241;-77
2023/08/13 09:47:59;;;;;;;3.33;1.95;;;;;;;;;;6317169;28;20044;-77
2023/08/13 09:51:02;;;;;;;2.92;1.70;;;;;;;;;;6313057;28;20063;-77
2023/08/13 09:54:06;;;;;;;2.28;1.85;;;;;;;;;;6313523;28;20401;-77
2023/08/13 09:57:09;;;;;;;3.85;1.67;;;;;;;;;;6317302;28;20043;-77
2023/08/13 10:00:13;;;;;;;3.60;1.70;;;;;;;;;;6315168;28;20048;-77
2023/08/13 10:03:15;;;;;;;4.55;1.73;;;;;;;;;;6314724;28;20391;-76
2023/08/13 10:06:18;;;;;;;4.40;2.08;;;;;;;;;;6316238;28;20336;-78
2023/08/13 10:09:19;;;;;;;5.10;2.05;;;;;;;;;;6313019;28;20355;-75
2023/08/13 10:12:21;;;;;;;3.78;2.00;;;;;;;;;;6316253;28;20048;-76
2023/08/13 10:15:24;;;;;;;2.13;1.63;;;;;;;;;;6312399;28;20255;-77
2023/08/13 10:18:28;;;;;;;3.72;2.10;;;;;;;;;;6313934;28;20149;-76
2023/08/13 10:21:33;;;;;;;6.60;2.28;;;;;;;;;;6315900;28;20043;-76
2023/08/13 10:24:34;;;;;;;2.13;1.90;;;;;;;;;;6316742;28;20048;-76
2023/08/13 10:27:37;;;;;;;3.88;2.25;;;;;;;;;;6321043;28;20072;-75
2023/08/13 10:30:40;;;;;;;2.42;1.95;;;;;;;;;;6314024;28;20101;-76
2023/08/13 10:33:41;;;;;;;2.25;2.03;;;;;;;;;;6319515;28;20059;-76
2023/08/13 10:36:43;;;;;;;2.38;1.95;;;;;;;;;;6318202;28;20056;-76
2023/08/13 10:39:46;;;;;;;5.40;2.50;;;;;;;;;;6315896;28;20051;-77
2023/08/13 10:42:53;;;;;;;3.83;2.20;;;;;;;;;;6318424;28;20048;-76
2023/08/13 10:45:56;;;;;;;3.90;2.28;;;;;;;;;;6316215;28;20063;-76
2023/08/13 10:48:58;;;;;;;4.85;2.00;;;;;;;;;;6318697;28;20059;-76
2023/08/13 10:52:01;;;;;;;5.95;2.22;;;;;;;;;;6318899;28;20213;-76
2023/08/13 10:55:02;;;;;;;7.03;2.78;;;;;;;;;;6316553;28;20056;-77
2023/08/13 10:58:04;;;;;;;;;;;;;;;;;;6318651;28;20336;-75
2023/08/13 11:01:12;;;;;;;2.92;2.30;;;;;;;;;;6315310;28;19928;-76
2023/08/13 11:04:14;;;;;;;2.75;2.03;;;;;;;;;;6314646;28;20056;-76
2023/08/13 11:07:15;;;;;;;2.78;2.47;;;;;;;;;;6315399;28;20352;-76
2023/08/13 11:10:18;;;;;;;4.90;2.35;;;;;;;;;;6317111;28;20052;-75
2023/08/13 11:13:20;;;;;;;4.95;2.30;;;;;;;;;;6316345;28;20043;-74
2023/08/13 11:16:26;;;;;;;10.05;7.28;;;;;;;;;;6313771;28;20248;-76
2023/08/13 11:19:28;;;;;;;5.40;3.25;;;;;;;;;;6317986;28;20060;-76
2023/08/13 11:22:29;;;;;;;;;;;;;;;;;;6318067;28;20061;-77
2023/08/13 11:25:31;;;;;;;4.50;2.40;;;;;;;;;;6321405;28;19939;-77
2023/08/13 11:28:32;;;;;;;;;;;;;;;;;;6320094;28;20540;-76
2023/08/13 11:31:35;;;;;;;2.72;2.20;;;;;;;;;;6320921;28;19954;-75
2023/08/13 11:34:36;;;;;;;4.50;2.30;;;;;;;;;;6319763;28;20051;-76
2023/08/13 11:37:38;;;;;;;4.38;2.05;;;;;;;;;;6321372;28;20098;-78
2023/08/13 11:40:40;;;;;;;5.53;2.30;;;;;;;;;;6324876;28;20074;-78
2023/08/13 11:43:41;;;;;;;;;;;;;;;;;;6320593;28;20057;-78
2023/08/13 11:46:53;;;;;;;3.80;2.47;;;;;;;;;;6320073;28;19924;-77
2023/08/13 11:49:57;;;;;;;3.67;2.22;;;;;;;;;;6318544;28;20055;-73
2023/08/13 11:53:03;;;;;;;2.80;2.08;;;;;;;;;;6317792;28;20060;-75
2023/08/13 11:56:04;;;;;;;3.47;2.10;;;;;;;;;;6320397;28;20067;-77
2023/08/13 11:59:06;;;;;;;4.20;2.10;;;;;;;;;;6318027;28;20339;-76
2023/08/13 12:02:08;;;;;;;2.22;2.03;;;;;;;;;;6318121;28;20048;-78
2023/08/13 12:05:12;;;;;;;4.75;2.28;;;;;;;;;;6318737;28;20049;-79
2023/08/13 12:08:14;;;;;;;5.90;2.72;;;;;;;;;;6320400;28;20115;-79
2023/08/13 12:11:15;;;;;;;4.35;2.50;;;;;;;;;;6321908;28;20056;-79
2023/08/13 12:14:17;;;;;;;4.15;2.35;;;;;;;;;;6319968;28;20047;-79
2023/08/13 12:17:18;;;;;;;;;;;;;;;;;;6321759;28;20052;-81
2023/08/13 12:20:22;;;;;;;2.42;2.22;;;;;;;;;;6318210;28;20176;-78
2023/08/13 12:23:23;;;;;;;2.60;2.33;;;;;;;;;;6322203;28;20280;-81
2023/08/13 12:26:25;;;;;;;2.72;2.10;;;;;;;;;;6319929;28;20359;-80
2023/08/13 12:29:26;;;;;;;2.10;1.90;;;;;;;;;;6321620;28;20098;-79
2023/08/13 12:32:28;;;;;;;2.75;2.50;;;;;;;;;;6320051;28;20048;-79
2023/08/13 12:35:31;;;;;;;3.08;2.40;;;;;;;;;;6316860;28;20044;-79
2023/08/13 12:38:33;;;;;;;2.92;2.28;;;;;;;;;;6319634;28;20303;-79
2023/08/13 12:41:35;;;;;;;4.63;2.60;;;;;;;;;;6318586;28;20052;-79
2023/08/13 12:44:36;;;;;;;2.47;2.22;;;;;;;;;;6321677;28;20047;-79
2023/08/13 12:47:38;;;;;;;4.10;2.83;;;;;;;;;;6318199;28;20052;-80
2023/08/13 12:50:41;;;;;;;3.08;2.50;;;;;;;;;;6322078;28;20048;-80
2023/08/13 12:53:42;;;;;;;3.80;2.53;;;;;;;;;;6317635;28;20060;-79
2023/08/13 12:56:44;;;;;;;5.00;2.53;;;;;;;;;;6318930;28;20108;-82
2023/08/13 12:59:45;;;;;;;2.15;2.05;;;;;;;;;;6319907;28;20049;-81
2023/08/13 13:02:47;;;;;;;3.28;2.22;;;;;;;;;;6321449;28;20119;-81
2023/08/13 13:05:49;;;;;;;2.75;2.05;;;;;;;;;;6315448;28;20052;-81
2023/08/13 13:08:51;;;;;;;3.70;2.25;;;;;;;;;;6317866;28;20271;-81
2023/08/13 13:11:52;;;;;;;3.65;2.83;;;;;;;;;;6316669;28;20060;-81
2023/08/13 13:14:54;;;;;;;2.63;2.33;;;;;;;;;;6319266;28;20048;-82
2023/08/13 13:17:55;;;;;;;2.65;2.20;;;;;;;;;;6319767;28;20056;-81
2023/08/13 13:20:58;;;;;;;5.05;2.50;;;;;;;;;;6319236;28;20337;-81
2023/08/13 13:24:00;;;;;;;2.90;2.65;;;;;;;;;;6319898;28;20064;-77
2023/08/13 13:27:01;;;;;;;4.32;2.38;;;;;;;;;;6318963;28;20056;-81
2023/08/13 13:30:06;;;;;;;6.60;2.20;;;;;;;;;;6318095;28;20062;-80
2023/08/13 13:33:08;;;;;;;3.45;2.30;;;;;;;;;;6316484;28;20064;-81
2023/08/13 13:36:10;;;;;;;3.08;2.33;;;;;;;;;;6319802;28;20055;-81
2023/08/13 13:39:12;;;;;;;3.90;2.50;;;;;;;;;;6319918;28;20059;-81
2023/08/13 13:42:13;;;;;;;3.58;2.65;;;;;;;;;;6318444;28;20072;-82
2023/08/13 13:45:15;;;;;;;3.03;2.13;;;;;;;;;;6320145;28;20052;-81
2023/08/13 13:48:16;;;;;;;2.50;2.30;;;;;;;;;;6317653;28;20052;-82
2023/08/13 13:51:19;;;;;;;2.55;2.30;;;;;;;;;;6317549;28;20097;-81
2023/08/13 13:54:21;;;;;;;3.85;2.10;;;;;;;;;;6320757;28;20062;-81
2023/08/13 13:57:23;;;;;;;4.15;2.20;;;;;;;;;;6320336;28;20052;-81
2023/08/13 14:00:25;;;;;;;4.47;2.60;;;;;;;;;;6321771;28;20047;-82
2023/08/13 14:03:26;;;;;;;3.05;2.20;;;;;;;;;;6323217;28;20272;-82
2023/08/13 14:06:29;;;;;;;2.25;2.05;;;;;;;;;;6322475;28;20044;-80
2023/08/13 14:09:30;;;;;;;3.15;2.00;;;;;;;;;;6324286;28;20047;-80
2023/08/13 14:12:32;;;;;;;4.43;2.25;;;;;;;;;;6323646;28;20053;-79
2023/08/13 14:15:33;;;;;;;4.68;2.33;;;;;;;;;;6320105;28;20340;-79
2023/08/13 14:18:35;;;;;;;2.92;2.20;;;;;;;;;;6321114;28;20052;-79
2023/08/13 14:21:38;;;;;;;3.28;2.40;;;;;;;;;;6321379;28;20055;-80
2023/08/13 14:24:39;;;;;;;3.40;2.35;;;;;;;;;;6320986;28;20044;-79
2023/08/13 14:27:41;;;;;;;2.50;2.30;;;;;;;;;;6323741;28;20325;-81
2023/08/13 14:30:42;;;;;;;4.25;2.53;;;;;;;;;;6321732;28;20067;-80
2023/08/13 14:33:43;;;;;;;2.67;2.45;;;;;;;;;;6320007;28;20052;-82
2023/08/13 14:36:46;;;;;;;3.58;2.80;;;;;;;;;;6322186;28;20060;-81
2023/08/13 14:39:48;;;;;;;4.60;3.03;;;;;;;;;;6318403;28;20063;-79
2023/08/13 14:42:49;;;;;;;5.22;2.50;;;;;;;;;;6318998;28;20056;-80
2023/08/13 14:45:51;;;;;;;3.08;2.70;;;;;;;;;;6319183;28;20052;-80
2023/08/13 14:48:53;;;;;;;4.65;2.20;;;;;;;;;;6315933;28;20052;-81
2023/08/13 14:51:55;;;;;;;3.97;2.80;;;;;;;;;;6317120;28;20063;-77
2023/08/13 14:54:57;;;;;;;3.78;2.55;;;;;;;;;;6315203;28;20101;-76
2023/08/13 14:57:58;;;;;;;3.75;2.70;;;;;;;;;;6315581;28;20059;-76
2023/08/13 15:01:00;;;;;;;4.07;2.78;;;;;;;;;;6317913;28;20442;-81
2023/08/13 15:04:01;;;;;;;3.35;2.70;;;;;;;;;;6314852;28;20048;-80
2023/08/13 15:07:04;;;;;;;3.22;2.50;;;;;;;;;;6314764;28;20067;-81
2023/08/13 15:10:06;;;;;;;5.10;3.20;;;;;;;;;;6316294;28;20067;-79
2023/08/13 15:13:07;;;;;;;3.47;2.33;;;;;;;;;;6318195;28;20063;-79
2023/08/13 15:16:09;;;;;;;3.67;2.80;;;;;;;;;;6319342;28;20051;-80
2023/08/13 15:19:10;;;;;;;4.95;2.97;;;;;;;;;;6318088;28;20315;-80
2023/08/13 15:22:13;;;;;;;3.58;2.70;;;;;;;;;;6315610;28;20050;-79
2023/08/13 15:25:15;;;;;;;3.85;2.63;;;;;;;;;;6317846;28;20059;-79
2023/08/13 15:28:16;;;;;;;4.55;2.78;;;;;;;;;;6318334;28;20048;-79
2023/08/13 15:31:17;;;;;;;4.45;2.85;;;;;;;;;;6315135;28;20058;-79
2023/08/13 15:34:23;;;;;;;4.13;2.65;;;;;;;;;;6318436;28;20042;-79
2023/08/13 15:37:26;;;;;;;3.90;2.80;;;;;;;;;;6314933;28;20048;-79
2023/08/13 15:40:28;;;;;;;4.95;2.88;;;;;;;;;;6316609;28;20051;-79
2023/08/13 15:43:29;;;;;;;3.30;2.70;;;;;;;;;;6320415;28;20056;-80
2023/08/13 15:46:31;;;;;;;3.40;2.83;;;;;;;;;;6317294;28;20320;-80
2023/08/13 15:49:32;;;;;;;3.10;2.72;;;;;;;;;;6317219;28;20043;-80
2023/08/13 15:52:34;;;;;;;;;;;;;;;;;;6319736;28;20056;-78
2023/08/13 15:55:38;;;;;;;4.70;3.10;;;;;;;;;;6316250;28;19990;-80
2023/08/13 15:58:39;;;;;;;3.47;3.00;;;;;;;;;;6316248;28;20052;-80
2023/08/13 16:01:41;;;;;;;4.25;3.15;;;;;;;;;;6316377;28;20052;-79
2023/08/13 16:04:42;;;;;;;4.65;3.30;;;;;;;;;;6317116;28;20043;-80
2023/08/13 16:07:45;;;;;;;5.35;3.40;;;;;;;;;;6315607;28;20067;-78
2023/08/13 16:10:55;;;;;;;4.25;3.63;;;;;;;;;;6316691;28;20056;-78
2023/08/13 16:13:56;;;;;;;3.70;3.30;;;;;;;;;;6314167;28;20051;-78
2023/08/13 16:16:58;;;;;;;7.65;3.25;;;;;;;;;;6314171;28;20058;-78
2023/08/13 16:19:59;;;;;;;4.25;3.65;;;;;;;;;;6315047;28;20232;-78
2023/08/13 16:23:01;;;;;;;3.90;3.50;;;;;;;;;;6316171;28;20047;-77
2023/08/13 16:26:04;;;;;;;5.57;3.40;;;;;;;;;;6316752;28;20052;-78
2023/08/13 16:29:05;;;;;;;4.63;3.30;;;;;;;;;;6316874;28;20062;-78
2023/08/13 16:32:07;;;;;;;3.97;3.40;;;;;;;;;;6319522;28;20060;-78
2023/08/13 16:35:08;;;;;;;5.57;3.73;;;;;;;;;;6314387;28;20474;-79
2023/08/13 16:38:10;;;;;;;4.88;3.53;;;;;;;;;;6310046;28;20048;-80
2023/08/13 16:41:13;;;;;;;4.22;3.42;;;;;;;;;;6316349;28;20059;-78
2023/08/13 16:44:14;;;;;;;4.38;3.70;;;;;;;;;;6312621;28;20679;-78
2023/08/13 16:47:16;;;;;;;4.70;3.40;;;;;;;;;;6304492;28;20059;-78
2023/08/13 16:50:17;;;;;;;4.50;3.37;;;;;;;;;;6315538;28;20252;-79
2023/08/13 16:53:19;;;;;;;7.50;3.70;;;;;;;;;;6309490;28;20479;-78
2023/08/13 16:56:23;;;;;;;5.10;3.20;;;;;;;;;;6312618;28;20046;-78
2023/08/13 16:59:24;;;;;;;5.18;4.00;;;;;;;;;;6315009;28;20474;-79
2023/08/13 17:02:26;;;;;;;3.60;3.30;;;;;;;;;;6315537;28;20052;-78
2023/08/13 17:05:27;;;;;;;4.23;3.83;;;;;;;;;;6310441;28;20524;-78
2023/08/13 17:08:29;;;;;;;3.77;3.43;;;;;;;;;;6316937;28;20047;-78
2023/08/13 17:11:32;;;;;;;3.87;3.40;;;;;;;;;;6314797;28;20044;-78
2023/08/13 17:14:33;;;;;;;5.65;3.42;;;;;;;;;;6313770;28;20060;-78
2023/08/13 17:17:35;;;;;;;5.17;3.63;;;;;;;;;;6313475;28;20052;-80
2023/08/13 17:20:36;;;;;;;5.20;3.30;;;;;;;;;;6314901;28;20528;-77
2023/08/13 17:23:37;;;;;;;5.63;3.10;;;;;;;;;;6314667;28;20236;-79
2023/08/13 17:26:40;;;;;;;6.60;3.03;;;;;;;;;;6316781;28;20055;-78
2023/08/13 17:29:42;;;;;;;5.78;2.95;;;;;;;;;;6313873;28;20055;-78
2023/08/13 17:32:43;;;;;;;9.80;3.20;;;;;;;;;;6316545;28;20060;-80
2023/08/13 17:35:45;;;;;;;5.10;3.75;;;;;;;;;;6318756;28;20449;-80
2023/08/13 17:38:46;;;;;;;7.20;3.28;;;;;;;;;;6318044;28;20051;-78
2023/08/13 17:41:49;;;;;;;6.43;3.30;;;;;;;;;;6317421;28;20336;-81
2023/08/13 17:44:51;;;;;;;4.00;3.20;;;;;;;;;;6319535;28;20053;-78
2023/08/13 17:47:52;;;;;;;4.18;2.83;;;;;;;;;;6320854;28;20735;-77
2023/08/13 17:50:53;;;;;;;3.28;2.97;;;;;;;;;;6322070;28;20063;-78
2023/08/13 17:53:55;;;;;;;7.28;3.20;;;;;;;;;;6320735;28;20055;-77
2023/08/13 17:56:58;;;;;;;5.28;3.00;;;;;;;;;;6319647;28;20054;-78
2023/08/13 17:59:59;;;;;;;7.35;3.40;;;;;;;;;;6316883;28;20233;-79
2023/08/13 18:03:01;;;;;;;3.53;3.23;;;;;;;;;;6316412;28;20052;-78
2023/08/13 18:06:02;;;;;;;4.47;3.38;;;;;;;;;;6317593;28;20049;-78
2023/08/13 18:09:04;;;;;;;4.45;3.65;;;;;;;;;;6318594;28;20058;-78
2023/08/13 18:12:07;;;;;;;6.77;3.70;;;;;;;;;;6321546;28;20115;-78
2023/08/13 18:15:09;;;;;;;4.15;3.50;;;;;;;;;;6317280;28;20048;-78